VLG36DV LEAM-LEBL
Flight info
| Callsign | VLG36DV |
|---|---|
| Flight time | 1h 3m |
| Altitude | 32000 |
| Route | AGIDO M192 BAZAS M985 MAMIS T245 BUDIT M445 BEGOX N860 VLC L34 CASIM N608 MATEX |
| Aircraft | A319/M-SDE3FGHIRWY/LB1 |
Departure
| Time | 2026-04-16 11:56 |
|---|---|
| Airport | Almería Airport (LEAM) |
Arrival
| Time | 2026-04-16 12:59 |
|---|---|
| Airport | Josep Tarradellas Barcelona-El Prat Airport (LEBL) |
| Time | Latitude | Longitude | Altitude | Speed | Heading |
|---|---|---|---|---|---|
| 2026-04-16 11:21 | 36.84630 | -2.37326 | 70 ft | 0 kts | 122° |
| 2026-04-16 11:49 | 36.84627 | -2.37322 | 63 ft | 2 kts | 135° |
| 2026-04-16 11:49 | 36.84617 | -2.37322 | 66 ft | 2 kts | 182° |
| 2026-04-16 11:50 | 36.84595 | -2.37318 | 68 ft | 4 kts | 166° |
| 2026-04-16 11:50 | 36.84576 | -2.37290 | 62 ft | 5 kts | 95° |
| 2026-04-16 11:50 | 36.84584 | -2.37252 | 65 ft | 5 kts | 71° |
| 2026-04-16 11:50 | 36.84595 | -2.37208 | 64 ft | 7 kts | 72° |
| 2026-04-16 11:51 | 36.84614 | -2.37134 | 63 ft | 11 kts | 73° |
| 2026-04-16 11:51 | 36.84637 | -2.37040 | 68 ft | 11 kts | 73° |
| 2026-04-16 11:51 | 36.84653 | -2.36956 | 67 ft | 8 kts | 92° |
| 2026-04-16 11:51 | 36.84615 | -2.36892 | 66 ft | 10 kts | 107° |
| 2026-04-16 11:52 | 36.84618 | -2.36808 | 64 ft | 9 kts | 73° |
| 2026-04-16 11:52 | 36.84635 | -2.36738 | 64 ft | 9 kts | 73° |
| 2026-04-16 11:52 | 36.84658 | -2.36645 | 64 ft | 14 kts | 73° |
| 2026-04-16 11:52 | 36.84691 | -2.36513 | 63 ft | 19 kts | 71° |
| 2026-04-16 11:53 | 36.84734 | -2.36334 | 66 ft | 24 kts | 72° |
| 2026-04-16 11:53 | 36.84785 | -2.36129 | 58 ft | 25 kts | 73° |
| 2026-04-16 11:53 | 36.84836 | -2.35916 | 66 ft | 26 kts | 73° |
| 2026-04-16 11:53 | 36.84890 | -2.35697 | 62 ft | 27 kts | 73° |
| 2026-04-16 11:54 | 36.84938 | -2.35512 | 66 ft | 15 kts | 72° |
| 2026-04-16 11:54 | 36.84954 | -2.35420 | 66 ft | 9 kts | 85° |
| 2026-04-16 11:54 | 36.84923 | -2.35346 | 61 ft | 11 kts | 136° |
| 2026-04-16 11:54 | 36.84844 | -2.35322 | 56 ft | 11 kts | 176° |
| 2026-04-16 11:55 | 36.84801 | -2.35356 | 62 ft | 8 kts | 252° |
| 2026-04-16 11:55 | 36.84777 | -2.35455 | 58 ft | 22 kts | 252° |
| 2026-04-16 11:55 | 36.84647 | -2.35984 | 60 ft | 103 kts | 253° |
| 2026-04-16 11:55 | 36.84366 | -2.37105 | 166 ft | 155 kts | 251° |
| 2026-04-16 11:56 | 36.84041 | -2.38380 | 938 ft | 154 kts | 251° |
| 2026-04-16 11:56 | 36.83714 | -2.39681 | 1699 ft | 165 kts | 251° |
| 2026-04-16 11:56 | 36.83359 | -2.41123 | 2363 ft | 181 kts | 251° |
| 2026-04-16 11:56 | 36.82973 | -2.42697 | 3001 ft | 201 kts | 252° |
| 2026-04-16 11:57 | 36.82541 | -2.44469 | 3590 ft | 224 kts | 252° |
| 2026-04-16 11:57 | 36.82083 | -2.46357 | 4606 ft | 228 kts | 253° |
| 2026-04-16 11:57 | 36.81541 | -2.48253 | 5602 ft | 231 kts | 239° |
| 2026-04-16 11:57 | 36.80393 | -2.49639 | 6352 ft | 242 kts | 206° |
| 2026-04-16 11:58 | 36.78784 | -2.50053 | 7338 ft | 239 kts | 174° |
| 2026-04-16 11:58 | 36.77204 | -2.49370 | 8217 ft | 242 kts | 143° |
| 2026-04-16 11:58 | 36.76076 | -2.47870 | 9068 ft | 243 kts | 116° |
| 2026-04-16 11:58 | 36.75614 | -2.45858 | 9939 ft | 244 kts | 88° |
| 2026-04-16 11:59 | 36.75948 | -2.43810 | 10760 ft | 243 kts | 61° |
| 2026-04-16 11:59 | 36.76969 | -2.42129 | 11416 ft | 253 kts | 37° |
| 2026-04-16 11:59 | 36.78613 | -2.41163 | 11820 ft | 275 kts | 13° |
| 2026-04-16 11:59 | 36.80560 | -2.40597 | 12210 ft | 299 kts | 12° |
| 2026-04-16 12:00 | 36.82671 | -2.40000 | 12564 ft | 323 kts | 12° |
| 2026-04-16 12:00 | 36.84944 | -2.39353 | 12871 ft | 346 kts | 12° |
| 2026-04-16 12:00 | 36.87334 | -2.38658 | 13470 ft | 357 kts | 13° |
| 2026-04-16 12:00 | 36.89768 | -2.37940 | 14212 ft | 362 kts | 13° |
| 2026-04-16 12:01 | 36.92235 | -2.37205 | 14932 ft | 367 kts | 13° |
| 2026-04-16 12:01 | 36.94729 | -2.36458 | 15654 ft | 371 kts | 14° |
| 2026-04-16 12:01 | 36.97151 | -2.35318 | 16336 ft | 375 kts | 28° |
| 2026-04-16 12:02 | 37.01708 | -2.32018 | 17828 ft | 382 kts | 30° |
| 2026-04-16 12:02 | 37.04018 | -2.30325 | 18548 ft | 386 kts | 30° |
| 2026-04-16 12:02 | 37.06349 | -2.28617 | 19178 ft | 390 kts | 30° |
| 2026-04-16 12:02 | 37.08703 | -2.26890 | 19817 ft | 394 kts | 30° |
| 2026-04-16 12:03 | 37.11080 | -2.25148 | 20425 ft | 397 kts | 30° |
| 2026-04-16 12:03 | 37.13476 | -2.23393 | 21031 ft | 401 kts | 30° |
| 2026-04-16 12:03 | 37.15895 | -2.21624 | 21617 ft | 404 kts | 30° |
| 2026-04-16 12:03 | 37.18334 | -2.19840 | 22195 ft | 408 kts | 30° |
| 2026-04-16 12:04 | 37.20795 | -2.18039 | 22758 ft | 411 kts | 30° |
| 2026-04-16 12:04 | 37.23270 | -2.16223 | 23310 ft | 414 kts | 30° |
| 2026-04-16 12:04 | 37.25768 | -2.14386 | 23846 ft | 418 kts | 30° |
| 2026-04-16 12:04 | 37.28251 | -2.12556 | 24283 ft | 421 kts | 29° |
| 2026-04-16 12:05 | 37.30786 | -2.10686 | 24726 ft | 424 kts | 29° |
| 2026-04-16 12:05 | 37.33340 | -2.08800 | 25147 ft | 428 kts | 29° |
| 2026-04-16 12:05 | 37.35918 | -2.06898 | 25570 ft | 431 kts | 29° |
| 2026-04-16 12:05 | 37.38512 | -2.04988 | 25974 ft | 434 kts | 28° |
| 2026-04-16 12:06 | 37.41127 | -2.03061 | 26370 ft | 437 kts | 28° |
| 2026-04-16 12:06 | 37.43763 | -2.01116 | 26779 ft | 440 kts | 28° |
| 2026-04-16 12:06 | 37.46417 | -1.99153 | 27174 ft | 443 kts | 28° |
| 2026-04-16 12:06 | 37.49086 | -1.97180 | 27585 ft | 446 kts | 28° |
| 2026-04-16 12:07 | 37.51767 | -1.95192 | 27977 ft | 448 kts | 28° |
| 2026-04-16 12:07 | 37.54458 | -1.93192 | 28375 ft | 451 kts | 28° |
| 2026-04-16 12:07 | 37.57167 | -1.91177 | 28760 ft | 453 kts | 28° |
| 2026-04-16 12:07 | 37.59890 | -1.89151 | 29144 ft | 456 kts | 28° |
| 2026-04-16 12:08 | 37.62632 | -1.87113 | 29494 ft | 458 kts | 28° |
| 2026-04-16 12:08 | 37.65384 | -1.85064 | 29840 ft | 461 kts | 28° |
| 2026-04-16 12:08 | 37.68138 | -1.83009 | 30222 ft | 462 kts | 28° |
| 2026-04-16 12:08 | 37.70917 | -1.80930 | 30672 ft | 461 kts | 27° |
| 2026-04-16 12:09 | 37.73661 | -1.78879 | 31100 ft | 460 kts | 27° |
| 2026-04-16 12:09 | 37.76415 | -1.76821 | 31531 ft | 459 kts | 27° |
| 2026-04-16 12:09 | 37.79171 | -1.74759 | 31957 ft | 458 kts | 27° |
| 2026-04-16 12:09 | 37.81917 | -1.72702 | 32186 ft | 459 kts | 27° |
| 2026-04-16 12:10 | 37.87364 | -1.68613 | 32230 ft | 454 kts | 27° |
| 2026-04-16 12:10 | 37.92785 | -1.64542 | 32232 ft | 452 kts | 27° |
| 2026-04-16 12:11 | 37.98197 | -1.60479 | 32234 ft | 452 kts | 27° |
| 2026-04-16 12:11 | 38.03567 | -1.56435 | 32235 ft | 452 kts | 27° |
| 2026-04-16 12:12 | 38.08970 | -1.52365 | 32238 ft | 451 kts | 27° |
| 2026-04-16 12:12 | 38.14368 | -1.48291 | 32241 ft | 451 kts | 27° |
| 2026-04-16 12:13 | 38.19764 | -1.44208 | 32239 ft | 451 kts | 27° |
| 2026-04-16 12:13 | 38.25142 | -1.40122 | 32239 ft | 450 kts | 27° |
| 2026-04-16 12:14 | 38.30517 | -1.36031 | 32235 ft | 450 kts | 27° |
| 2026-04-16 12:14 | 38.35891 | -1.31941 | 32236 ft | 450 kts | 27° |
| 2026-04-16 12:15 | 38.41259 | -1.27850 | 32239 ft | 450 kts | 27° |
| 2026-04-16 12:15 | 38.46625 | -1.23747 | 32243 ft | 449 kts | 27° |
| 2026-04-16 12:16 | 38.51987 | -1.19644 | 32239 ft | 449 kts | 27° |
| 2026-04-16 12:16 | 38.57344 | -1.15545 | 32237 ft | 449 kts | 27° |
| 2026-04-16 12:17 | 38.62696 | -1.11441 | 32234 ft | 449 kts | 28° |
| 2026-04-16 12:17 | 38.68044 | -1.07325 | 32228 ft | 448 kts | 28° |
| 2026-04-16 12:18 | 38.73388 | -1.03200 | 32227 ft | 448 kts | 28° |
| 2026-04-16 12:18 | 38.78730 | -0.99072 | 32221 ft | 448 kts | 28° |
| 2026-04-16 12:19 | 38.84069 | -0.94949 | 32217 ft | 448 kts | 28° |
| 2026-04-16 12:19 | 38.89407 | -0.90820 | 32215 ft | 448 kts | 28° |
| 2026-04-16 12:20 | 38.94743 | -0.86679 | 32211 ft | 448 kts | 28° |
| 2026-04-16 12:20 | 39.00076 | -0.82531 | 32209 ft | 448 kts | 28° |
| 2026-04-16 12:21 | 39.05409 | -0.78374 | 32206 ft | 448 kts | 28° |
| 2026-04-16 12:21 | 39.10757 | -0.74378 | 32206 ft | 447 kts | 26° |
| 2026-04-16 12:22 | 39.16258 | -0.70642 | 32205 ft | 446 kts | 25° |
| 2026-04-16 12:22 | 39.21762 | -0.66948 | 32202 ft | 446 kts | 25° |
| 2026-04-16 12:23 | 39.27249 | -0.63182 | 32205 ft | 446 kts | 26° |
| 2026-04-16 12:23 | 39.32716 | -0.59368 | 32209 ft | 447 kts | 26° |
| 2026-04-16 12:24 | 39.38176 | -0.55544 | 32207 ft | 446 kts | 26° |
| 2026-04-16 12:24 | 39.43644 | -0.51733 | 32205 ft | 446 kts | 26° |
| 2026-04-16 12:25 | 39.48192 | -0.48565 | 32206 ft | 446 kts | 26° |
| 2026-04-16 12:25 | 39.53533 | -0.44440 | 32204 ft | 448 kts | 30° |
| 2026-04-16 12:26 | 39.58727 | -0.39981 | 32207 ft | 448 kts | 31° |
| 2026-04-16 12:26 | 39.63922 | -0.35516 | 32205 ft | 448 kts | 31° |
| 2026-04-16 12:27 | 39.69149 | -0.31133 | 32207 ft | 447 kts | 30° |
| 2026-04-16 12:27 | 39.74395 | -0.26783 | 32208 ft | 447 kts | 30° |
| 2026-04-16 12:28 | 39.79629 | -0.22423 | 32205 ft | 447 kts | 30° |
| 2026-04-16 12:28 | 39.84854 | -0.18034 | 32206 ft | 447 kts | 31° |
| 2026-04-16 12:29 | 39.90071 | -0.13636 | 32206 ft | 446 kts | 31° |
| 2026-04-16 12:29 | 39.95284 | -0.09244 | 32205 ft | 446 kts | 31° |
| 2026-04-16 12:30 | 40.00463 | -0.04881 | 32205 ft | 446 kts | 31° |
| 2026-04-16 12:30 | 40.05670 | -0.00475 | 32205 ft | 446 kts | 31° |
| 2026-04-16 12:31 | 40.10867 | 0.03931 | 32206 ft | 446 kts | 31° |
| 2026-04-16 12:31 | 40.15564 | 0.09192 | 32209 ft | 450 kts | 49° |
| 2026-04-16 12:32 | 40.19498 | 0.15569 | 32208 ft | 450 kts | 49° |
| 2026-04-16 12:32 | 40.23414 | 0.21963 | 32210 ft | 450 kts | 49° |
| 2026-04-16 12:33 | 40.27329 | 0.28363 | 32050 ft | 451 kts | 49° |
| 2026-04-16 12:33 | 40.29292 | 0.31577 | 31794 ft | 451 kts | 49° |
| 2026-04-16 12:33 | 40.31247 | 0.34782 | 31546 ft | 451 kts | 49° |
| 2026-04-16 12:34 | 40.33205 | 0.37995 | 31295 ft | 451 kts | 49° |
| 2026-04-16 12:34 | 40.35164 | 0.41215 | 31048 ft | 451 kts | 49° |
| 2026-04-16 12:34 | 40.37119 | 0.44432 | 30805 ft | 452 kts | 49° |
| 2026-04-16 12:34 | 40.39077 | 0.47653 | 30566 ft | 452 kts | 49° |
| 2026-04-16 12:35 | 40.41037 | 0.50877 | 30324 ft | 452 kts | 49° |
| 2026-04-16 12:35 | 40.43000 | 0.54105 | 30054 ft | 453 kts | 49° |
| 2026-04-16 12:35 | 40.44964 | 0.57339 | 29761 ft | 453 kts | 49° |
| 2026-04-16 12:35 | 40.46928 | 0.60580 | 29486 ft | 454 kts | 49° |
| 2026-04-16 12:36 | 40.48891 | 0.63824 | 29223 ft | 454 kts | 49° |
| 2026-04-16 12:36 | 40.50857 | 0.67074 | 28953 ft | 455 kts | 49° |
| 2026-04-16 12:36 | 40.52827 | 0.70337 | 28685 ft | 455 kts | 49° |
| 2026-04-16 12:36 | 40.54793 | 0.73606 | 28418 ft | 456 kts | 49° |
| 2026-04-16 12:37 | 40.56759 | 0.76880 | 28187 ft | 457 kts | 49° |
| 2026-04-16 12:37 | 40.58727 | 0.80156 | 28208 ft | 457 kts | 49° |
| 2026-04-16 12:37 | 40.62644 | 0.86672 | 28209 ft | 457 kts | 49° |
| 2026-04-16 12:38 | 40.66586 | 0.93247 | 28210 ft | 457 kts | 49° |
| 2026-04-16 12:38 | 40.70512 | 0.99826 | 28209 ft | 457 kts | 49° |
| 2026-04-16 12:39 | 40.74109 | 1.06733 | 27503 ft | 457 kts | 60° |
| 2026-04-16 12:39 | 40.75336 | 1.10617 | 26276 ft | 462 kts | 70° |
| 2026-04-16 12:39 | 40.76247 | 1.14694 | 25081 ft | 464 kts | 71° |
| 2026-04-16 12:40 | 40.77158 | 1.18783 | 23943 ft | 464 kts | 71° |
| 2026-04-16 12:40 | 40.78075 | 1.22852 | 22693 ft | 463 kts | 71° |
| 2026-04-16 12:40 | 40.78991 | 1.26892 | 21837 ft | 455 kts | 71° |
| 2026-04-16 12:40 | 40.79896 | 1.30863 | 20994 ft | 448 kts | 71° |
| 2026-04-16 12:41 | 40.80787 | 1.34768 | 20189 ft | 442 kts | 71° |
| 2026-04-16 12:41 | 40.81668 | 1.38635 | 19409 ft | 437 kts | 71° |
| 2026-04-16 12:41 | 40.82536 | 1.42451 | 18633 ft | 432 kts | 71° |
| 2026-04-16 12:41 | 40.83392 | 1.46235 | 17840 ft | 427 kts | 71° |
| 2026-04-16 12:42 | 40.84234 | 1.49970 | 17158 ft | 421 kts | 71° |
| 2026-04-16 12:42 | 40.85293 | 1.53486 | 16896 ft | 403 kts | 59° |
| 2026-04-16 12:42 | 40.86660 | 1.56623 | 16805 ft | 388 kts | 58° |
| 2026-04-16 12:42 | 40.88007 | 1.59716 | 16724 ft | 389 kts | 58° |
| 2026-04-16 12:43 | 40.89359 | 1.62820 | 16638 ft | 389 kts | 58° |
| 2026-04-16 12:43 | 40.90711 | 1.65918 | 16552 ft | 389 kts | 58° |
| 2026-04-16 12:43 | 40.92048 | 1.68972 | 16468 ft | 388 kts | 58° |
| 2026-04-16 12:43 | 40.93400 | 1.72061 | 16369 ft | 388 kts | 58° |
| 2026-04-16 12:44 | 40.94760 | 1.75165 | 15726 ft | 389 kts | 58° |
| 2026-04-16 12:44 | 40.96094 | 1.78216 | 15375 ft | 378 kts | 58° |
| 2026-04-16 12:44 | 40.97367 | 1.81138 | 15205 ft | 353 kts | 58° |
| 2026-04-16 12:44 | 40.98547 | 1.83859 | 15079 ft | 329 kts | 58° |
| 2026-04-16 12:45 | 40.99655 | 1.86411 | 14794 ft | 314 kts | 58° |
| 2026-04-16 12:45 | 41.00740 | 1.88900 | 14465 ft | 309 kts | 58° |
| 2026-04-16 12:45 | 41.01811 | 1.91353 | 14063 ft | 307 kts | 58° |
| 2026-04-16 12:45 | 41.02874 | 1.93792 | 13596 ft | 304 kts | 58° |
| 2026-04-16 12:46 | 41.03928 | 1.96212 | 13120 ft | 302 kts | 58° |
| 2026-04-16 12:46 | 41.04974 | 1.98619 | 12650 ft | 300 kts | 58° |
| 2026-04-16 12:46 | 41.06014 | 2.01011 | 12174 ft | 299 kts | 58° |
| 2026-04-16 12:46 | 41.07046 | 2.03390 | 11707 ft | 297 kts | 58° |
| 2026-04-16 12:47 | 41.08069 | 2.05754 | 11246 ft | 295 kts | 58° |
| 2026-04-16 12:47 | 41.09087 | 2.08110 | 10789 ft | 293 kts | 58° |
| 2026-04-16 12:47 | 41.10099 | 2.10451 | 10328 ft | 292 kts | 58° |
| 2026-04-16 12:47 | 41.11101 | 2.12775 | 9847 ft | 290 kts | 58° |
| 2026-04-16 12:48 | 41.12100 | 2.15094 | 9368 ft | 289 kts | 58° |
| 2026-04-16 12:48 | 41.13093 | 2.17395 | 8969 ft | 287 kts | 58° |
| 2026-04-16 12:48 | 41.14081 | 2.19682 | 8544 ft | 285 kts | 58° |
| 2026-04-16 12:48 | 41.15062 | 2.21955 | 8134 ft | 283 kts | 58° |
| 2026-04-16 12:49 | 41.16036 | 2.24214 | 7725 ft | 281 kts | 58° |
| 2026-04-16 12:49 | 41.17003 | 2.26463 | 7315 ft | 279 kts | 58° |
| 2026-04-16 12:49 | 41.17955 | 2.28665 | 6908 ft | 277 kts | 57° |
| 2026-04-16 12:49 | 41.18967 | 2.30832 | 6482 ft | 275 kts | 55° |
| 2026-04-16 12:50 | 41.20011 | 2.32957 | 6027 ft | 274 kts | 54° |
| 2026-04-16 12:50 | 41.21061 | 2.35060 | 5488 ft | 272 kts | 54° |
| 2026-04-16 12:50 | 41.22064 | 2.37072 | 5314 ft | 251 kts | 54° |
| 2026-04-16 12:50 | 41.23045 | 2.38991 | 4929 ft | 245 kts | 49° |
| 2026-04-16 12:51 | 41.24310 | 2.40437 | 4317 ft | 248 kts | 30° |
| 2026-04-16 12:51 | 41.25771 | 2.41628 | 3932 ft | 244 kts | 27° |
| 2026-04-16 12:51 | 41.27227 | 2.42763 | 3572 ft | 242 kts | 25° |
| 2026-04-16 12:51 | 41.28806 | 2.43333 | 3236 ft | 233 kts | 357° |
| 2026-04-16 12:52 | 41.30399 | 2.43177 | 3015 ft | 229 kts | 348° |
| 2026-04-16 12:52 | 41.31962 | 2.42782 | 3004 ft | 229 kts | 343° |
| 2026-04-16 12:52 | 41.33518 | 2.42301 | 3003 ft | 229 kts | 342° |
| 2026-04-16 12:52 | 41.35067 | 2.41805 | 3002 ft | 230 kts | 342° |
| 2026-04-16 12:53 | 41.36610 | 2.41252 | 2998 ft | 228 kts | 334° |
| 2026-04-16 12:53 | 41.37876 | 2.40087 | 2998 ft | 213 kts | 307° |
| 2026-04-16 12:53 | 41.38565 | 2.38456 | 2999 ft | 198 kts | 283° |
| 2026-04-16 12:53 | 41.38676 | 2.36663 | 2999 ft | 195 kts | 261° |
| 2026-04-16 12:54 | 41.38428 | 2.34886 | 3000 ft | 196 kts | 258° |
| 2026-04-16 12:54 | 41.38152 | 2.33110 | 3002 ft | 196 kts | 253° |
| 2026-04-16 12:54 | 41.37697 | 2.31412 | 3003 ft | 191 kts | 247° |
| 2026-04-16 12:54 | 41.37193 | 2.29846 | 2997 ft | 178 kts | 246° |
| 2026-04-16 12:55 | 41.36708 | 2.28397 | 2905 ft | 167 kts | 245° |
| 2026-04-16 12:55 | 41.36237 | 2.27006 | 2707 ft | 162 kts | 245° |
| 2026-04-16 12:55 | 41.35777 | 2.25650 | 2502 ft | 159 kts | 245° |
| 2026-04-16 12:55 | 41.35325 | 2.24317 | 2291 ft | 157 kts | 245° |
| 2026-04-16 12:56 | 41.34879 | 2.23007 | 2089 ft | 154 kts | 244° |
| 2026-04-16 12:56 | 41.34440 | 2.21718 | 1889 ft | 151 kts | 244° |
| 2026-04-16 12:56 | 41.34009 | 2.20451 | 1685 ft | 149 kts | 244° |
| 2026-04-16 12:56 | 41.33588 | 2.19215 | 1483 ft | 142 kts | 244° |
| 2026-04-16 12:57 | 41.33195 | 2.18061 | 1305 ft | 133 kts | 243° |
| 2026-04-16 12:57 | 41.32822 | 2.16966 | 1104 ft | 128 kts | 243° |
| 2026-04-16 12:57 | 41.32461 | 2.15909 | 960 ft | 124 kts | 242° |
| 2026-04-16 12:57 | 41.32101 | 2.14859 | 820 ft | 125 kts | 243° |
| 2026-04-16 12:58 | 41.31745 | 2.13818 | 639 ft | 124 kts | 243° |
| 2026-04-16 12:58 | 41.31391 | 2.12774 | 459 ft | 123 kts | 242° |
| 2026-04-16 12:58 | 41.31041 | 2.11745 | 284 ft | 123 kts | 240° |
| 2026-04-16 12:58 | 41.30686 | 2.10720 | 126 ft | 121 kts | 242° |
| 2026-04-16 12:59 | 41.30344 | 2.09707 | 25 ft | 114 kts | 243° |
| 2026-04-16 12:59 | 41.30064 | 2.08879 | 20 ft | 76 kts | 244° |
| 2026-04-16 12:59 | 41.29910 | 2.08449 | 26 ft | 29 kts | 239° |
| 2026-04-16 13:00 | 41.29719 | 2.08204 | 17 ft | 11 kts | 214° |
| 2026-04-16 13:00 | 41.29651 | 2.08189 | 17 ft | 10 kts | 195° |
| 2026-04-16 13:00 | 41.29611 | 2.08110 | 17 ft | 11 kts | 245° |
| 2026-04-16 13:00 | 41.29573 | 2.08006 | 18 ft | 13 kts | 246° |
| 2026-04-16 13:01 | 41.29533 | 2.07888 | 17 ft | 15 kts | 245° |
| 2026-04-16 13:01 | 41.29495 | 2.07808 | 17 ft | 9 kts | 205° |
| 2026-04-16 13:01 | 41.29428 | 2.07839 | 16 ft | 12 kts | 150° |
| 2026-04-16 13:01 | 41.29350 | 2.07886 | 18 ft | 12 kts | 154° |
| 2026-04-16 13:02 | 41.29273 | 2.07933 | 21 ft | 13 kts | 156° |
| 2026-04-16 13:02 | 41.29258 | 2.08000 | 19 ft | 9 kts | 63° |
| 2026-04-16 13:02 | 41.29286 | 2.08082 | 20 ft | 9 kts | 66° |
| 2026-04-16 13:02 | 41.29296 | 2.08152 | 19 ft | 7 kts | 119° |
| 2026-04-16 13:03 | 41.29253 | 2.08159 | 19 ft | 6 kts | 180° |
| 2026-04-16 13:03 | 41.29232 | 2.08158 | 19 ft | 2 kts | 182° |
| 2026-04-16 13:03 | 41.29226 | 2.08157 | 19 ft | 0 kts | 182° |